Time;durP1;ratioP1;P1;durP2;ratioP2;P2;SDS_P1;SDS_P2;PMS_P1;PMS_P2;Temp;Humidity;BMP_temperature;BMP_pressure;BME280_temperature;BME280_humidity;BME280_pressure;Samples;Min_cycle;Max_cycle;Signal;HPM_P1;HPM_P2
2023/12/28 00:00:13;;;;;;;;;;;;;;;8.94;86.55;100790.53;4915929;29;19983;-91
2023/12/28 00:02:40;;;;;;;;;;;;;;;8.95;87.15;100799.19;4897778;29;19919;-90
2023/12/28 00:05:06;;;;;;;;;;;;;;;8.92;87.44;100810.44;4905680;29;20366;-89
2023/12/28 00:07:31;;;;;;;;;;;;;;;8.92;87.82;100807.84;4899815;29;20460;-90
2023/12/28 00:09:56;;;;;;;;;;;;;;;8.93;88.26;100811.31;4903693;29;19914;-89
2023/12/28 00:12:22;;;;;;;;;;;;;;;8.91;88.51;100820.88;4922260;29;19919;-89
2023/12/28 00:14:48;;;;;;;;;;;;;;;8.89;88.61;100813.09;4906004;29;20071;-89
2023/12/28 00:17:13;;;;;;;;;;;;;;;8.89;89.07;100809.66;4918077;29;20009;-90
2023/12/28 00:19:38;;;;;;;;;;;;;;;8.87;89.58;100812.28;4919294;29;20010;-90
2023/12/28 00:22:03;;;;;;;;;;;;;;;8.91;89.88;100818.28;4906154;29;19919;-90
2023/12/28 00:24:28;;;;;;;;;;;;;;;8.88;89.94;100818.31;4908190;29;20433;-89
2023/12/28 00:26:54;;;;;;;;;;;;;;;8.84;90.28;100822.72;4906565;29;20371;-89
2023/12/28 00:29:19;;;;;;;;;;;;;;;8.86;90.73;100830.47;4920117;29;19949;-87
2023/12/28 00:31:44;;;;;;;;;;;;;;;8.83;91.17;100835.72;4919828;29;20005;-89
2023/12/28 00:34:09;;;;;;;;;;;;;;;8.84;91.36;100835.69;4920466;29;20022;-89
2023/12/28 00:36:35;;;;;;;;;;;;;;;8.81;91.40;100840.94;4905505;29;19934;-90
2023/12/28 00:39:00;;;;;;;;;;;;;;;8.81;91.90;100848.72;4922641;29;20018;-88
2023/12/28 00:41:25;;;;;;;;;;;;;;;8.79;91.94;100840.09;4904320;29;19970;-89
2023/12/28 00:43:50;;;;;;;;;;;;;;;8.81;92.44;100849.56;4903774;29;19925;-89
2023/12/28 00:46:16;;;;;;;;;;;;;;;8.89;92.51;100844.22;4901206;29;19915;-88
2023/12/28 00:48:41;;;;;;;;;;;;;;;8.88;92.85;100849.47;4901002;29;19930;-89
2023/12/28 00:51:06;;;;;;;;;;;;;;;8.85;93.10;100850.38;4898980;29;20302;-87
2023/12/28 00:53:31;;;;;;;;;;;;;;;8.86;93.05;100852.09;4903493;29;19923;-89
2023/12/28 00:55:57;;;;;;;;;;;;;;;8.90;93.12;100861.50;4916646;29;20013;-89
2023/12/28 00:58:22;;;;;;;;;;;;;;;8.91;93.50;100855.44;4897281;29;19985;-90
2023/12/28 01:00:47;;;;;;;;;;;;;;;8.90;93.89;100852.88;4922088;29;19969;-89
2023/12/28 01:03:12;;;;;;;;;;;;;;;8.91;93.89;100865.81;4899869;29;19964;-90
2023/12/28 01:05:38;;;;;;;;;;;;;;;8.88;94.21;100850.31;4898549;29;19915;-90
2023/12/28 01:08:04;;;;;;;;;;;;;;;8.90;94.39;100852.88;4914990;29;20104;-87
2023/12/28 01:10:29;;;;;;;;;;;;;;;8.94;94.72;100854.53;4896945;29;19922;-89
2023/12/28 01:12:54;;;;;;;;;;;;;;;8.90;94.38;100855.47;4897085;29;19915;-89
2023/12/28 01:15:20;;;;;;;;;;;;;;;8.93;94.87;100858.03;4899807;29;19921;-89
2023/12/28 01:17:45;;;;;;;;;;;;;;;8.92;94.80;100861.50;4913781;29;20363;-89
2023/12/28 01:20:11;;;;;;;;;;;;;;;8.92;95.06;100867.53;4896560;29;19930;-88
2023/12/28 01:22:36;;;;;;;;;;;;;;;8.92;95.34;100867.53;4914753;29;19921;-90
2023/12/28 01:25:01;;;;;;;;;;;;;;;8.90;95.43;100876.22;4921281;29;19922;-91
2023/12/28 01:27:26;;;;;;;;;;;;;;;8.94;95.82;100876.13;4914569;29;19925;-89
2023/12/28 01:29:51;;;;;;;;;;;;;;;9.00;95.68;100869.97;4900378;29;20066;-91
2023/12/28 01:32:17;;;;;;;;;;;;;;;9.00;95.78;100869.13;4918639;29;20371;-90
2023/12/28 01:34:42;;;;;;;;;;;;;;;9.06;96.06;100879.38;4915129;29;19925;-88
2023/12/28 01:37:08;;;;;;;;;;;;;;;9.09;96.06;100877.59;4925590;29;19914;-89
2023/12/28 01:39:33;;;;;;;;;;;;;;;9.09;95.80;100884.53;4917122;29;19915;-89
2023/12/28 01:41:58;;;;;;;;;;;;;;;9.05;96.07;100869.91;4904656;29;20347;-88
2023/12/28 01:44:24;;;;;;;;;;;;;;;9.07;95.98;100891.47;4916241;29;20419;-90
2023/12/28 01:46:49;;;;;;;;;;;;;;;9.07;96.39;100878.50;4915708;29;20410;-90
2023/12/28 01:49:15;;;;;;;;;;;;;;;9.02;96.28;100885.53;4913130;29;20442;-91
2023/12/28 01:51:40;;;;;;;;;;;;;;;9.01;96.59;100900.22;4896222;29;20283;-90
2023/12/28 01:54:05;;;;;;;;;;;;;;;9.06;96.48;100887.16;4900527;29;20343;-91
2023/12/28 01:56:31;;;;;;;;;;;;;;;9.05;96.40;100888.09;4901863;29;20375;-86
2023/12/28 01:58:56;;;;;;;;;;;;;;;9.02;96.70;100878.59;4914636;29;20001;-87
2023/12/28 02:01:21;;;;;;;;;;;;;;;8.99;96.42;100878.66;4907976;29;19954;-87
2023/12/28 02:03:47;;;;;;;;;;;;;;;8.96;96.91;100884.75;4917322;29;19990;-88
2023/12/28 02:06:15;;;;;;;;;;;;;;;8.97;97.05;100885.59;4918918;29;19915;-88
2023/12/28 02:08:41;;;;;;;;;;;;;;;8.95;97.06;100896.00;4918764;29;19915;-87
2023/12/28 02:11:06;;;;;;;;;;;;;;;8.93;96.92;100891.75;4915835;29;19945;-87
2023/12/28 02:13:31;;;;;;;;;;;;;;;8.91;97.29;100886.56;4918607;29;19934;-87
2023/12/28 02:16:03;;;;;;;;;;;;;;;8.88;97.38;100889.22;4923521;29;20256;-87
2023/12/28 02:18:32;;;;;;;;;;;;;;;8.90;97.60;100884.84;4914013;29;20324;-87
2023/12/28 02:20:58;;;;;;;;;;;;;;;8.89;97.58;100882.31;4912161;29;19914;-87
2023/12/28 02:23:23;;;;;;;;;;;;;;;8.94;97.74;100896.06;4915407;29;19927;-88
2023/12/28 02:25:48;;;;;;;;;;;;;;;8.86;97.91;100898.78;4915714;29;20647;-86
2023/12/28 02:28:13;;;;;;;;;;;;;;;8.89;98.13;100905.66;4915270;29;20375;-88
2023/12/28 02:30:38;;;;;;;;;;;;;;;8.85;98.19;100886.69;4900726;29;20414;-87
2023/12/28 02:33:22;;;;;;;;;;;;;;;8.86;98.19;100892.72;4915797;29;20002;-88
2023/12/28 02:35:51;;;;;;;;;;;;;;;8.84;98.15;100892.78;4902396;29;20054;-86
2023/12/28 02:38:17;;;;;;;;;;;;;;;8.84;98.39;100900.56;4916260;29;19938;-88
2023/12/28 02:40:46;;;;;;;;;;;;;;;8.86;98.03;100887.53;4919719;29;20274;-88
2023/12/28 02:43:11;;;;;;;;;;;;;;;8.81;98.30;100879.84;4924423;29;19919;-87
2023/12/28 02:45:37;;;;;;;;;;;;;;;8.78;98.40;100885.97;4896273;29;19965;-88
2023/12/28 02:48:03;;;;;;;;;;;;;;;8.82;98.61;100878.97;4913982;29;20286;-87
2023/12/28 02:50:31;;;;;;;;;;;;;;;8.85;98.50;100865.94;4916546;29;19915;-87
2023/12/28 02:52:57;;;;;;;;;;;;;;;8.81;98.57;100877.25;4916217;29;19963;-88
2023/12/28 02:55:22;;;;;;;;;;;;;;;8.78;98.78;100875.59;4902985;29;19919;-87
2023/12/28 02:57:49;;;;;;;;;;;;;;;8.78;98.86;100869.53;4915006;29;19925;-88
2023/12/28 03:00:14;;;;;;;;;;;;;;;8.85;98.58;100891.03;4915415;29;20001;-87
2023/12/28 03:02:39;;;;;;;;;;;;;;;8.83;98.67;100872.91;4914354;29;20009;-87
2023/12/28 03:05:05;;;;;;;;;;;;;;;8.86;98.95;100887.53;4912791;29;19922;-87
2023/12/28 03:07:31;;;;;;;;;;;;;;;8.81;98.68;100874.66;4914797;29;19922;-87
2023/12/28 03:09:56;;;;;;;;;;;;;;;8.78;98.66;100879.91;4920829;29;19922;-87
2023/12/28 03:12:22;;;;;;;;;;;;;;;8.80;98.72;100884.16;4921910;29;19938;-87
2023/12/28 03:14:47;;;;;;;;;;;;;;;8.81;98.59;100879.84;4916409;29;19915;-88
2023/12/28 03:17:13;;;;;;;;;;;;;;;8.80;98.49;100867.75;4920635;29;19922;-87
2023/12/28 03:19:38;;;;;;;;;;;;;;;8.87;98.19;100879.75;4921926;29;19923;-87
2023/12/28 03:22:03;;;;;;;;;;;;;;;8.85;98.40;100873.72;4901414;29;19919;-87
2023/12/28 03:24:28;;;;;;;;;;;;;;;8.82;98.39;100876.38;4911667;29;19978;-87
2023/12/28 03:26:53;;;;;;;;;;;;;;;8.87;98.10;100876.28;4915687;29;20043;-87
2023/12/28 03:29:19;;;;;;;;;;;;;;;8.90;97.68;100861.50;4913488;29;19915;-88
2023/12/28 03:31:45;;;;;;;;;;;;;;;8.92;97.48;100870.13;4912939;29;19915;-88
2023/12/28 03:34:10;;;;;;;;;;;;;;;8.92;97.62;100898.66;4913216;29;20415;-86
2023/12/28 03:36:35;;;;;;;;;;;;;;;8.99;97.33;100889.03;4913386;29;20513;-86
2023/12/28 03:39:00;;;;;;;;;;;;;;;8.97;97.79;100888.19;4912913;29;19926;-87
2023/12/28 03:41:26;;;;;;;;;;;;;;;9.01;97.55;100887.25;4896253;29;19915;-87
2023/12/28 03:43:51;;;;;;;;;;;;;;;9.08;96.63;100893.19;4916045;29;19918;-87
2023/12/28 03:46:16;;;;;;;;;;;;;;;9.11;96.51;100893.13;4916149;29;19979;-88
2023/12/28 03:48:41;;;;;;;;;;;;;;;9.11;96.10;100877.56;4924603;29;19978;-87
2023/12/28 03:51:07;;;;;;;;;;;;;;;9.08;96.15;100880.22;4920183;29;19915;-87
2023/12/28 03:53:32;;;;;;;;;;;;;;;9.08;95.90;100873.31;4916277;29;20014;-87
2023/12/28 03:56:00;;;;;;;;;;;;;;;9.07;95.60;100860.34;4917982;29;19920;-87
2023/12/28 03:58:25;;;;;;;;;;;;;;;9.12;94.95;100858.50;4916359;29;19923;-87
2023/12/28 04:00:51;;;;;;;;;;;;;;;9.07;95.12;100863.81;4920604;29;19921;-88
2023/12/28 04:03:16;;;;;;;;;;;;;;;9.04;95.36;100868.19;4923500;29;19919;-87
2023/12/28 04:05:43;;;;;;;;;;;;;;;9.05;95.21;100872.50;4917668;29;20294;-87
2023/12/28 04:08:08;;;;;;;;;;;;;;;9.07;94.53;100873.31;4918872;29;20367;-87
2023/12/28 04:10:33;;;;;;;;;;;;;;;9.09;94.49;100887.13;4925289;29;19922;-87
2023/12/28 04:12:59;;;;;;;;;;;;;;;9.08;94.10;100882.81;4922642;29;19955;-87
2023/12/28 04:15:28;;;;;;;;;;;;;;;9.18;93.21;100889.56;4921365;29;19937;-87
2023/12/28 04:17:53;;;;;;;;;;;;;;;9.18;92.51;100884.38;4921135;29;19922;-88
2023/12/28 04:20:18;;;;;;;;;;;;;;;9.15;92.92;100874.03;4922601;29;19915;-87
2023/12/28 04:22:44;;;;;;;;;;;;;;;9.17;92.57;100872.25;4920467;29;20034;-87
2023/12/28 04:25:09;;;;;;;;;;;;;;;9.17;92.22;100868.81;4915647;29;19923;-87
2023/12/28 04:27:35;;;;;;;;;;;;;;;9.19;92.09;100893.88;4922638;29;19955;-87
2023/12/28 04:30:00;;;;;;;;;;;;;;;9.17;92.15;100880.06;4922744;29;20382;-88
2023/12/28 04:32:26;;;;;;;;;;;;;;;9.15;91.81;100876.63;4916109;29;20005;-87
2023/12/28 04:34:51;;;;;;;;;;;;;;;9.15;91.99;100879.22;4922611;29;20039;-87
2023/12/28 04:37:16;;;;;;;;;;;;;;;9.17;92.09;100887.84;4918130;29;19922;-87
2023/12/28 04:39:41;;;;;;;;;;;;;;;9.14;92.04;100881.88;4918434;29;19922;-87
2023/12/28 04:42:06;;;;;;;;;;;;;;;9.20;91.69;100879.13;4917673;29;19915;-87
2023/12/28 04:44:32;;;;;;;;;;;;;;;9.22;91.51;100891.19;4930927;28;19986;-88
2023/12/28 04:46:58;;;;;;;;;;;;;;;9.20;91.41;100880.00;4925482;29;19998;-87
2023/12/28 04:49:23;;;;;;;;;;;;;;;9.28;90.92;100879.84;4920106;29;19919;-87
2023/12/28 04:51:48;;;;;;;;;;;;;;;9.27;90.73;100878.97;4925195;29;19922;-87
2023/12/28 04:54:13;;;;;;;;;;;;;;;9.23;91.05;100879.06;4899668;29;20390;-88
2023/12/28 04:56:39;;;;;;;;;;;;;;;9.25;90.73;100872.97;4929709;29;20386;-87
2023/12/28 04:59:04;;;;;;;;;;;;;;;9.24;90.38;100896.38;4918766;29;20394;-87
2023/12/28 05:01:31;;;;;;;;;;;;;;;9.23;90.80;100884.25;4915686;29;19998;-87
2023/12/28 05:03:56;;;;;;;;;;;;;;;9.25;90.25;100880.75;4901800;29;19915;-87
2023/12/28 05:06:22;;;;;;;;;;;;;;;9.24;90.62;100889.41;4916212;29;20283;-88
2023/12/28 05:08:47;;;;;;;;;;;;;;;9.27;90.38;100902.34;4926597;29;20286;-88
2023/12/28 05:11:12;;;;;;;;;;;;;;;9.33;90.17;100903.13;4919325;29;19970;-87
2023/12/28 05:13:38;;;;;;;;;;;;;;;9.34;90.01;100884.06;4924870;29;19915;-88
2023/12/28 05:16:03;;;;;;;;;;;;;;;9.40;89.18;100904.69;4921931;29;19918;-88
2023/12/28 05:18:28;;;;;;;;;;;;;;;9.40;89.57;100909.88;4914751;29;19926;-88
2023/12/28 05:20:53;;;;;;;;;;;;;;;9.48;88.53;100897.63;4898112;29;20339;-87
2023/12/28 05:23:19;;;;;;;;;;;;;;;9.50;88.45;100914.03;4916904;29;20478;-87
2023/12/28 05:25:46;;;;;;;;;;;;;;;9.45;88.98;100925.41;4915866;29;20517;-88
2023/12/28 05:28:11;;;;;;;;;;;;;;;9.46;88.66;100904.56;4918463;29;20275;-87
2023/12/28 05:30:36;;;;;;;;;;;;;;;9.41;88.75;100906.41;4916304;29;19930;-87
2023/12/28 05:33:02;;;;;;;;;;;;;;;9.37;88.63;100899.59;4919860;29;19914;-87
2023/12/28 05:35:27;;;;;;;;;;;;;;;9.33;88.35;100906.56;4917800;29;19918;-87
2023/12/28 05:37:52;;;;;;;;;;;;;;;9.33;87.84;100903.13;4910618;29;19927;-87
2023/12/28 05:40:17;;;;;;;;;;;;;;;9.30;87.71;100905.75;4920810;29;19923;-88
2023/12/28 05:42:42;;;;;;;;;;;;;;;9.32;87.27;100906.59;4915091;29;19930;-88
2023/12/28 05:45:08;;;;;;;;;;;;;;;9.29;87.36;100896.25;4918905;29;20426;-87
2023/12/28 05:47:33;;;;;;;;;;;;;;;9.28;87.35;100900.63;4916902;29;19926;-87
2023/12/28 05:49:58;;;;;;;;;;;;;;;9.32;86.67;100896.22;4913883;29;20632;-87
2023/12/28 05:52:24;;;;;;;;;;;;;;;9.30;86.68;100904.03;4922436;29;20330;-87
2023/12/28 05:54:49;;;;;;;;;;;;;;;9.31;86.95;100910.06;4916698;29;19943;-88
2023/12/28 05:57:14;;;;;;;;;;;;;;;9.32;87.04;100911.78;4920715;29;19930;-87
2023/12/28 05:59:40;;;;;;;;;;;;;;;9.32;87.08;100916.97;4917762;29;19915;-87
2023/12/28 06:02:05;;;;;;;;;;;;;;;9.35;86.63;100922.97;4918216;29;19915;-88
2023/12/28 06:04:31;;;;;;;;;;;;;;;9.39;86.13;100916.84;4916757;29;19954;-88
2023/12/28 06:06:56;;;;;;;;;;;;;;;9.41;86.02;100911.59;4914274;29;19936;-88
2023/12/28 06:09:21;;;;;;;;;;;;;;;9.47;85.65;100924.47;4906034;29;19966;-87
2023/12/28 06:11:46;;;;;;;;;;;;;;;9.49;85.82;100929.63;4901699;29;19993;-87
2023/12/28 06:14:11;;;;;;;;;;;;;;;9.46;86.24;100921.91;4925811;29;20331;-87
2023/12/28 06:16:37;;;;;;;;;;;;;;;9.49;86.02;100916.63;4916449;29;21620;-87
2023/12/28 06:19:02;;;;;;;;;;;;;;;9.51;86.11;100915.75;4915270;29;20487;-88
2023/12/28 06:21:29;;;;;;;;;;;;;;;9.48;86.32;100921.00;4917675;29;19921;-88
2023/12/28 06:23:55;;;;;;;;;;;;;;;9.51;86.38;100936.50;4915739;29;20013;-87
2023/12/28 06:26:20;;;;;;;;;;;;;;;9.52;86.25;100933.03;4917086;29;20112;-87
2023/12/28 06:28:45;;;;;;;;;;;;;;;9.52;86.28;100925.25;4915222;29;20438;-86
2023/12/28 06:31:10;;;;;;;;;;;;;;;9.58;85.96;100942.44;4912785;29;20015;-88
2023/12/28 06:33:36;;;;;;;;;;;;;;;9.62;85.62;100931.09;4896059;29;20038;-88
2023/12/28 06:36:05;;;;;;;;;;;;;;;9.61;85.69;100949.31;4896494;29;19934;-87
2023/12/28 06:38:31;;;;;;;;;;;;;;;9.58;85.95;100939.84;4914972;29;19915;-87
2023/12/28 06:40:56;;;;;;;;;;;;;;;9.57;86.04;100936.38;4914874;29;19922;-87
2023/12/28 06:43:22;;;;;;;;;;;;;;;9.60;86.09;100939.78;4915503;29;19919;-87
2023/12/28 06:45:47;;;;;;;;;;;;;;;9.57;86.12;100948.53;4913918;29;19926;-87
2023/12/28 06:48:12;;;;;;;;;;;;;;;9.60;85.90;100937.19;4916275;29;19942;-87
2023/12/28 06:50:37;;;;;;;;;;;;;;;9.59;85.66;100940.69;4898615;29;20323;-86
2023/12/28 06:53:03;;;;;;;;;;;;;;;9.55;85.77;100961.53;4920681;29;19915;-88
2023/12/28 06:55:28;;;;;;;;;;;;;;;9.55;85.41;100940.78;4919715;29;19914;-86
2023/12/28 06:57:53;;;;;;;;;;;;;;;9.53;85.42;100947.72;4898769;29;20367;-87
2023/12/28 07:00:18;;;;;;;;;;;;;;;9.45;85.77;100946.16;4917089;29;20443;-87
2023/12/28 07:02:44;;;;;;;;;;;;;;;9.43;85.58;100948.78;4914018;29;19966;-87
2023/12/28 07:05:09;;;;;;;;;;;;;;;9.40;85.87;100949.69;4917548;29;19934;-87
2023/12/28 07:07:35;;;;;;;;;;;;;;;9.36;85.99;100953.25;4917626;29;19961;-88
2023/12/28 07:10:01;;;;;;;;;;;;;;;9.34;85.96;100960.19;4914145;29;19915;-88
2023/12/28 07:12:26;;;;;;;;;;;;;;;9.35;85.84;100953.28;4925784;29;19982;-88
2023/12/28 07:14:51;;;;;;;;;;;;;;;9.34;86.22;100967.13;4918793;29;20001;-87
2023/12/28 07:17:17;;;;;;;;;;;;;;;9.32;86.20;100971.50;4899316;29;20001;-87
2023/12/28 07:19:42;;;;;;;;;;;;;;;9.34;86.07;100982.72;4914586;29;19927;-87
2023/12/28 07:22:08;;;;;;;;;;;;;;;9.35;85.73;100985.28;4923293;29;19915;-88
2023/12/28 07:24:33;;;;;;;;;;;;;;;9.33;86.30;100986.19;4923779;29;20792;-87
2023/12/28 07:26:58;;;;;;;;;;;;;;;9.36;86.28;100988.75;4920020;29;20385;-87
2023/12/28 07:29:23;;;;;;;;;;;;;;;9.36;86.30;100981.78;4917271;29;20509;-87
2023/12/28 07:31:48;;;;;;;;;;;;;;;9.32;86.67;100985.31;4900049;29;20422;-88
2023/12/28 07:34:14;;;;;;;;;;;;;;;9.33;86.54;100987.03;4926617;29;20451;-88
2023/12/28 07:36:42;;;;;;;;;;;;;;;9.31;86.78;101003.53;4922627;29;20449;-88
2023/12/28 07:39:07;;;;;;;;;;;;;;;9.32;86.72;101000.06;4903639;29;20034;-87
2023/12/28 07:41:33;;;;;;;;;;;;;;;9.35;86.70;101005.22;4901683;29;20010;-87
2023/12/28 07:43:58;;;;;;;;;;;;;;;9.33;87.13;100991.38;4908925;29;19903;-90
2023/12/28 07:46:23;;;;;;;;;;;;;;;9.32;87.05;101002.66;4931046;29;19927;-88
2023/12/28 07:48:49;;;;;;;;;;;;;;;9.32;87.27;101007.84;4927001;29;19937;-89
2023/12/28 07:51:14;;;;;;;;;;;;;;;9.31;87.41;101003.53;4918767;29;19919;-88
2023/12/28 07:53:39;;;;;;;;;;;;;;;9.32;87.54;101008.69;4907279;29;20264;-87
2023/12/28 07:56:05;;;;;;;;;;;;;;;9.32;87.47;101011.28;4922288;29;19921;-87
2023/12/28 07:58:30;;;;;;;;;;;;;;;9.32;87.59;101010.44;4905765;29;20005;-88
2023/12/28 08:00:56;;;;;;;;;;;;;;;9.32;87.84;101010.44;4919317;29;19915;-88
2023/12/28 08:03:21;;;;;;;;;;;;;;;9.40;87.68;101019.81;4915499;29;19915;-88
2023/12/28 08:05:46;;;;;;;;;;;;;;;9.38;87.66;101021.56;4915976;29;20017;-88
2023/12/28 08:08:11;;;;;;;;;;;;;;;9.40;87.52;101034.53;4903593;29;19950;-88
2023/12/28 08:10:36;;;;;;;;;;;;;;;9.38;88.02;101025.94;4899018;29;19943;-87
2023/12/28 08:13:02;;;;;;;;;;;;;;;9.41;87.90;101031.91;4898745;29;19915;-86
2023/12/28 08:15:27;;;;;;;;;;;;;;;9.47;87.36;101041.31;4916671;29;19915;-87
2023/12/28 08:17:52;;;;;;;;;;;;;;;9.48;87.26;101030.06;4918723;29;19977;-88
2023/12/28 08:20:17;;;;;;;;;;;;;;;9.47;87.36;101035.28;4907238;29;19971;-87
2023/12/28 08:22:43;;;;;;;;;;;;;;;9.51;86.95;101042.13;4917501;29;19958;-88
2023/12/28 08:25:08;;;;;;;;;;;;;;;9.47;87.46;101030.94;4920385;29;19979;-88
2023/12/28 08:27:33;;;;;;;;;;;;;;;9.50;87.65;101035.22;4921935;29;19922;-87
2023/12/28 08:29:58;;;;;;;;;;;;;;;9.54;87.01;101031.69;4922934;29;19919;-87
2023/12/28 08:32:24;;;;;;;;;;;;;;;9.56;87.09;101040.31;4898252;29;20383;-88
2023/12/28 08:34:49;;;;;;;;;;;;;;;9.54;87.06;101029.97;4914877;29;20427;-87
2023/12/28 08:37:14;;;;;;;;;;;;;;;9.55;87.02;101034.28;4898805;29;20302;-88
2023/12/28 08:39:39;;;;;;;;;;;;;;;9.62;86.52;101034.13;4920145;29;20414;-87
2023/12/28 08:42:05;;;;;;;;;;;;;;;9.59;87.01;101036.78;4915173;29;19915;-88
2023/12/28 08:44:30;;;;;;;;;;;;;;;9.57;87.13;101042.03;4916812;29;19998;-87
2023/12/28 08:46:55;;;;;;;;;;;;;;;9.60;87.02;101044.56;4917385;29;20379;-87
2023/12/28 08:49:22;;;;;;;;;;;;;;;9.60;87.08;101051.50;4900352;29;19915;-86
2023/12/28 08:51:47;;;;;;;;;;;;;;;9.63;86.60;101052.31;4903974;29;19962;-87
2023/12/28 08:54:12;;;;;;;;;;;;;;;9.62;87.02;101054.91;4917469;29;19965;-87
2023/12/28 08:56:37;;;;;;;;;;;;;;;9.63;87.25;101061.81;4916656;29;19914;-88
2023/12/28 08:59:03;;;;;;;;;;;;;;;9.68;86.76;101054.81;4922293;29;19914;-88
2023/12/28 09:01:29;;;;;;;;;;;;;;;9.67;87.00;101060.91;4899662;29;19922;-88
2023/12/28 09:03:55;;;;;;;;;;;;;;;9.70;86.84;101069.47;4899596;29;19922;-88
2023/12/28 09:06:20;;;;;;;;;;;;;;;9.70;86.66;101079.03;4918245;29;20009;-88
2023/12/28 09:08:47;;;;;;;;;;;;;;;9.72;86.48;101090.25;4920412;29;19915;-88
2023/12/28 09:11:13;;;;;;;;;;;;;;;9.69;86.56;101095.50;4918297;29;20247;-88
2023/12/28 09:13:38;;;;;;;;;;;;;;;9.69;86.50;101090.31;4916906;29;20013;-87
2023/12/28 09:16:04;;;;;;;;;;;;;;;9.70;86.63;101089.41;4918781;29;19925;-88
2023/12/28 09:18:29;;;;;;;;;;;;;;;9.67;86.39;101084.28;4921803;29;19914;-87
2023/12/28 09:20:55;;;;;;;;;;;;;;;9.68;86.59;101097.22;4921692;29;19938;-87
2023/12/28 09:23:20;;;;;;;;;;;;;;;9.70;86.24;101092.03;4921111;29;19915;-88
2023/12/28 09:25:45;;;;;;;;;;;;;;;9.75;85.65;101090.16;4905438;29;19926;-87
2023/12/28 09:28:10;;;;;;;;;;;;;;;9.69;86.10;101098.94;4908509;29;19919;-89
2023/12/28 09:30:36;;;;;;;;;;;;;;;9.74;85.94;101108.41;4896496;29;19920;-87
2023/12/28 09:33:01;;;;;;;;;;;;;;;9.77;85.65;101085.81;4884495;29;19922;-88
2023/12/28 09:35:26;;;;;;;;;;;;;;;9.79;85.38;101080.59;4901182;29;19923;-88
2023/12/28 09:37:51;;;;;;;;;;;;;;;9.81;85.01;101112.63;4903057;29;19922;-87
2023/12/28 09:40:17;;;;;;;;;;;;;;;9.81;84.51;101105.66;4907608;29;20014;-88
2023/12/28 09:43:01;;;;;;;;;;;;;;;9.83;84.29;101100.41;4906488;29;19927;-88
2023/12/28 09:45:26;;;;;;;;;;;;;;;9.81;84.61;101103.06;4901925;29;19923;-87
2023/12/28 09:47:52;;;;;;;;;;;;;;;9.76;85.19;101107.47;4907880;29;19923;-87
2023/12/28 09:50:18;;;;;;;;;;;;;;;9.81;84.94;101110.84;4882510;29;20393;-87
2023/12/28 09:52:43;;;;;;;;;;;;;;;9.81;84.75;101103.06;4900514;29;19915;-88
2023/12/28 09:55:08;;;;;;;;;;;;;;;9.87;84.39;101112.47;4902685;29;19915;-87
2023/12/28 09:57:34;;;;;;;;;;;;;;;9.84;84.27;101110.81;4894874;29;20406;-88
2023/12/28 09:59:59;;;;;;;;;;;;;;;9.79;84.65;101125.63;4896709;29;20434;-88
2023/12/28 10:02:24;;;;;;;;;;;;;;;9.90;83.94;101132.38;4895680;29;20260;-88
2023/12/28 10:04:50;;;;;;;;;;;;;;;9.83;83.95;101136.81;4897750;29;19915;-87
2023/12/28 10:07:15;;;;;;;;;;;;;;;9.81;84.52;101123.00;4877537;29;20335;-88
2023/12/28 10:09:40;;;;;;;;;;;;;;;9.79;85.04;101125.63;4894690;29;19915;-88
2023/12/28 10:12:06;;;;;;;;;;;;;;;9.80;85.06;101142.91;4897530;29;19919;-87
2023/12/28 10:14:31;;;;;;;;;;;;;;;9.82;84.51;101151.56;4893443;29;19934;-86
2023/12/28 10:16:57;;;;;;;;;;;;;;;9.85;84.62;101137.63;4894675;29;19954;-87
2023/12/28 10:19:23;;;;;;;;;;;;;;;9.91;83.69;101139.25;4894409;29;19916;-87
2023/12/28 10:21:48;;;;;;;;;;;;;;;9.88;84.08;101127.19;4898918;29;20426;-88
2023/12/28 10:24:13;;;;;;;;;;;;;;;9.87;84.60;101128.94;4906372;29;20031;-87
2023/12/28 10:26:39;;;;;;;;;;;;;;;9.89;84.61;101141.91;4906465;29;20014;-87
2023/12/28 10:29:05;;;;;;;;;;;;;;;9.90;84.59;101127.19;4911803;29;19919;-87
2023/12/28 10:31:30;;;;;;;;;;;;;;;9.91;84.78;101121.06;4913253;29;19923;-87
2023/12/28 10:34:02;;;;;;;;;;;;;;;9.94;84.30;101110.63;4913393;29;20054;-88
2023/12/28 10:36:28;;;;;;;;;;;;;;;9.94;84.44;101116.69;4913732;29;19981;-87
2023/12/28 10:38:53;;;;;;;;;;;;;;;9.96;84.65;101117.53;4912882;29;20044;-88
2023/12/28 10:41:19;;;;;;;;;;;;;;;9.97;84.18;101107.97;4913509;29;19915;-88
2023/12/28 10:43:44;;;;;;;;;;;;;;;10.01;84.22;101123.47;4913208;29;20038;-88
2023/12/28 10:46:09;;;;;;;;;;;;;;;10.01;84.22;101117.44;4912925;29;19998;-87
2023/12/28 10:48:37;;;;;;;;;;;;;;;10.03;84.18;101113.91;4913914;29;20009;-87
2023/12/28 10:51:03;;;;;;;;;;;;;;;10.03;84.18;101118.25;4912214;29;19923;-88
2023/12/28 10:53:47;;;;;;;;;;;;;;;10.08;84.04;101112.97;4914985;29;19915;-88
2023/12/28 10:56:20;;;;;;;;;;;;;;;10.09;83.54;101112.09;4912925;29;20018;-88
2023/12/28 10:59:04;;;;;;;;;;;;;;;10.05;83.81;101100.03;4899120;29;20017;-88
2023/12/28 11:01:35;;;;;;;;;;;;;;;10.06;83.66;101097.41;4914317;29;20331;-87
2023/12/28 11:04:08;;;;;;;;;;;;;;;10.06;83.92;101113.00;4914559;29;20456;-88
2023/12/28 11:06:34;;;;;;;;;;;;;;;10.11;83.98;101115.50;4911887;29;19973;-87
2023/12/28 11:09:00;;;;;;;;;;;;;;;10.12;83.93;101099.88;4914086;29;19969;-87
2023/12/28 11:11:27;;;;;;;;;;;;;;;10.15;84.09;101096.38;4916864;29;19915;-87
2023/12/28 11:13:54;;;;;;;;;;;;;;;10.22;83.39;101097.09;4914014;29;20294;-87
2023/12/28 11:16:19;;;;;;;;;;;;;;;10.22;83.06;101090.16;4918605;29;19921;-87
2023/12/28 11:18:45;;;;;;;;;;;;;;;10.24;83.04;101083.19;4920706;29;20294;-86
2023/12/28 11:21:11;;;;;;;;;;;;;;;10.25;82.45;101081.41;4913135;29;20371;-88
2023/12/28 11:23:36;;;;;;;;;;;;;;;10.26;82.29;101083.13;4910946;29;19986;-88
2023/12/28 11:26:02;;;;;;;;;;;;;;;10.26;82.08;101077.94;4911899;29;19919;-87
2023/12/28 11:28:27;;;;;;;;;;;;;;;10.25;82.34;101077.09;4911422;29;19923;-88
2023/12/28 11:30:52;;;;;;;;;;;;;;;10.31;82.14;101082.19;4915715;29;19954;-88
2023/12/28 11:33:18;;;;;;;;;;;;;;;10.34;81.65;101096.84;4901182;29;19919;-87
2023/12/28 11:35:43;;;;;;;;;;;;;;;10.34;81.15;101076.03;4921707;29;19925;-88
2023/12/28 11:38:09;;;;;;;;;;;;;;;10.34;81.27;101070.84;4923424;29;20331;-88
2023/12/28 11:41:00;;;;;;;;;;;;;;;10.35;81.13;101066.47;4914218;29;19915;-87
2023/12/28 11:43:27;;;;;;;;;;;;;;;10.37;81.03;101065.59;4909169;29;20264;-87
2023/12/28 11:45:55;;;;;;;;;;;;;;;10.37;80.15;101056.91;4910620;29;20427;-87
2023/12/28 11:48:25;;;;;;;;;;;;;;;10.30;80.61;101059.66;4915541;29;20387;-87
2023/12/28 11:50:51;;;;;;;;;;;;;;;10.28;81.17;101066.63;4913762;29;20005;-89
2023/12/28 11:53:16;;;;;;;;;;;;;;;10.35;80.29;101061.28;4914806;29;20680;-88
2023/12/28 11:55:42;;;;;;;;;;;;;;;10.32;80.37;101052.69;4910207;29;20374;-88
2023/12/28 11:58:07;;;;;;;;;;;;;;;10.28;80.49;101060.56;4911296;29;19915;-89
2023/12/28 12:00:32;;;;;;;;;;;;;;;10.27;80.91;101058.84;4913656;29;19914;-90
2023/12/28 12:02:57;;;;;;;;;;;;;;;10.25;80.89;101045.00;4911323;29;19923;-89
2023/12/28 12:05:23;;;;;;;;;;;;;;;10.30;80.58;101043.19;4911300;29;19922;-91
2023/12/28 12:07:54;;;;;;;;;;;;;;;10.27;80.39;101048.44;4902743;29;20594;-91
2023/12/28 12:10:21;;;;;;;;;;;;;;;10.25;80.52;101037.22;4914793;29;19922;-89
2023/12/28 12:12:47;;;;;;;;;;;;;;;10.21;81.19;101040.78;4915973;29;19923;-88
2023/12/28 12:15:12;;;;;;;;;;;;;;;10.19;81.42;101051.22;4897391;29;19970;-90
2023/12/28 12:17:38;;;;;;;;;;;;;;;10.21;81.47;101039.03;4915580;29;19934;-91
2023/12/28 12:20:04;;;;;;;;;;;;;;;10.22;81.36;101045.09;4899166;29;19915;-90
2023/12/28 12:22:29;;;;;;;;;;;;;;;10.21;81.49;101043.41;4916078;29;20335;-90
2023/12/28 12:24:56;;;;;;;;;;;;;;;10.18;81.71;101039.97;4915615;29;19919;-90
2023/12/28 12:27:21;;;;;;;;;;;;;;;10.18;81.78;101049.50;4902557;29;19919;-91
2023/12/28 12:29:46;;;;;;;;;;;;;;;10.22;81.96;101037.31;4898114;29;19973;-90
2023/12/28 12:32:11;;;;;;;;;;;;;;;10.24;81.57;101022.53;4901965;29;19929;-90
2023/12/28 12:34:38;;;;;;;;;;;;;;;10.23;81.60;101013.03;4898954;29;19930;-89
2023/12/28 12:37:03;;;;;;;;;;;;;;;10.21;81.90;101013.03;4917930;29;19922;-88